Time;durP1;ratioP1;P1;durP2;ratioP2;P2;SDS_P1;SDS_P2;PMS_P1;PMS_P2;Temp;Humidity;BMP_temperature;BMP_pressure;BME280_temperature;BME280_humidity;BME280_pressure;Samples;Min_cycle;Max_cycle;Signal;HPM_P1;HPM_P2
2023/12/05 00:02:02;;;;;;;29.13;11.20;;;;;;;;;;5075803;28;20124;-75
2023/12/05 00:04:28;;;;;;;17.95;6.05;;;;;;;;;;5094424;28;20146;-74
2023/12/05 00:06:54;;;;;;;25.25;10.60;;;;;;;;;;5093805;28;20048;-75
2023/12/05 00:09:21;;;;;;;18.83;7.38;;;;;;;;;;5059637;28;20479;-74
2023/12/05 00:11:47;;;;;;;26.80;10.98;;;;;;;;;;5094485;28;20123;-74
2023/12/05 00:14:13;;;;;;;24.90;9.27;;;;;;;;;;5092976;28;20044;-75
2023/12/05 00:16:39;;;;;;;31.85;12.23;;;;;;;;;;5092804;28;20047;-73
2023/12/05 00:19:05;;;;;;;27.00;10.68;;;;;;;;;;5092680;28;20043;-77
2023/12/05 00:21:31;;;;;;;29.50;11.57;;;;;;;;;;5094149;28;20048;-77
2023/12/05 00:23:57;;;;;;;23.90;9.10;;;;;;;;;;5094025;28;20051;-76
2023/12/05 00:26:23;;;;;;;28.35;11.25;;;;;;;;;;5093252;28;20059;-74
2023/12/05 00:28:49;;;;;;;25.27;9.20;;;;;;;;;;5094149;28;20126;-77
2023/12/05 00:31:15;;;;;;;30.00;11.07;;;;;;;;;;5093317;28;20083;-76
2023/12/05 00:33:42;;;;;;;28.70;9.90;;;;;;;;;;5093861;28;20047;-79
2023/12/05 00:36:08;;;;;;;34.13;13.30;;;;;;;;;;5094418;28;20099;-74
2023/12/05 00:38:34;;;;;;;22.48;8.40;;;;;;;;;;5075967;28;20044;-74
2023/12/05 00:41:00;;;;;;;20.35;8.00;;;;;;;;;;5092281;28;20400;-76
2023/12/05 00:43:27;;;;;;;25.83;9.47;;;;;;;;;;5093710;28;20039;-73
2023/12/05 00:45:55;;;;;;;24.58;9.13;;;;;;;;;;5092333;28;20052;-76
2023/12/05 00:48:21;;;;;;;32.15;11.77;;;;;;;;;;5092495;28;20431;-74
2023/12/05 00:50:47;;;;;;;31.48;12.73;;;;;;;;;;5093556;28;20052;-73
2023/12/05 00:53:14;;;;;;;24.17;9.25;;;;;;;;;;5093568;28;20051;-75
2023/12/05 00:55:40;;;;;;;26.17;9.80;;;;;;;;;;5092564;28;20043;-78
2023/12/05 00:58:06;;;;;;;21.97;7.30;;;;;;;;;;5094643;28;20105;-76
2023/12/05 01:00:32;;;;;;;33.33;12.10;;;;;;;;;;5092620;28;20044;-76
2023/12/05 01:02:58;;;;;;;27.77;9.25;;;;;;;;;;5093245;28;20080;-76
2023/12/05 01:05:24;;;;;;;29.13;11.00;;;;;;;;;;5093621;28;20056;-74
2023/12/05 01:07:51;;;;;;;32.92;13.43;;;;;;;;;;5093079;28;20048;-74
2023/12/05 01:10:17;;;;;;;26.10;9.30;;;;;;;;;;5093371;28;20074;-72
2023/12/05 01:12:43;;;;;;;35.97;13.50;;;;;;;;;;5092102;28;20486;-76
2023/12/05 01:15:09;;;;;;;36.13;13.15;;;;;;;;;;5093085;28;20055;-73
2023/12/05 01:17:35;;;;;;;29.05;12.15;;;;;;;;;;5093004;28;20044;-74
2023/12/05 01:20:04;;;;;;;31.13;11.73;;;;;;;;;;5092929;28;20520;-71
2023/12/05 01:22:30;;;;;;;29.85;11.98;;;;;;;;;;5075555;28;20048;-71
2023/12/05 01:24:56;;;;;;;36.67;12.18;;;;;;;;;;5093069;28;20112;-71
2023/12/05 01:27:22;;;;;;;30.00;11.82;;;;;;;;;;5093201;28;20040;-72
2023/12/05 01:29:49;;;;;;;28.63;10.85;;;;;;;;;;5093158;28;20131;-74
2023/12/05 01:32:15;;;;;;;22.67;7.70;;;;;;;;;;5092864;28;20051;-71
2023/12/05 01:34:41;;;;;;;32.00;12.10;;;;;;;;;;5093063;28;20055;-73
2023/12/05 01:37:07;;;;;;;36.78;14.18;;;;;;;;;;5092918;28;20044;-72
2023/12/05 01:39:33;;;;;;;36.97;12.80;;;;;;;;;;5093430;28;20048;-71
2023/12/05 01:41:59;;;;;;;27.52;10.80;;;;;;;;;;5093155;28;20040;-72
2023/12/05 01:44:26;;;;;;;24.20;9.93;;;;;;;;;;5095250;28;20048;-70
2023/12/05 01:46:52;;;;;;;25.33;8.65;;;;;;;;;;5095499;28;20044;-71
2023/12/05 01:49:19;;;;;;;37.72;14.40;;;;;;;;;;5096299;28;20052;-69
2023/12/05 01:51:46;;;;;;;34.22;12.88;;;;;;;;;;5096806;28;20051;-70
2023/12/05 01:54:12;;;;;;;37.25;12.98;;;;;;;;;;5099889;28;20048;-70
2023/12/05 01:56:38;;;;;;;33.78;11.43;;;;;;;;;;5100909;28;20102;-71
2023/12/05 01:59:04;;;;;;;26.17;9.45;;;;;;;;;;5098726;28;20048;-74
2023/12/05 02:01:30;;;;;;;31.88;11.52;;;;;;;;;;5096734;28;20088;-72
2023/12/05 02:03:58;;;;;;;36.10;13.75;;;;;;;;;;5096172;28;20044;-70
2023/12/05 02:06:26;;;;;;;29.27;10.65;;;;;;;;;;5096158;28;20044;-72
2023/12/05 02:08:53;;;;;;;35.25;13.45;;;;;;;;;;5096148;28;20055;-72
2023/12/05 02:11:19;;;;;;;32.22;12.15;;;;;;;;;;5096932;28;20118;-70
2023/12/05 02:13:47;;;;;;;30.67;11.65;;;;;;;;;;5096964;28;20046;-70
2023/12/05 02:16:13;;;;;;;34.40;12.82;;;;;;;;;;5095066;28;20059;-73
2023/12/05 02:18:43;;;;;;;28.73;10.40;;;;;;;;;;5078222;28;20067;-69
2023/12/05 02:21:13;;;;;;;24.05;8.02;;;;;;;;;;5096340;28;20163;-70
2023/12/05 02:23:42;;;;;;;28.23;10.95;;;;;;;;;;5094552;28;20090;-69
2023/12/05 02:26:28;;;;;;;32.72;10.90;;;;;;;;;;5095813;28;20070;-69
2023/12/05 02:28:54;;;;;;;37.10;12.57;;;;;;;;;;5095588;28;20056;-71
2023/12/05 02:31:20;;;;;;;29.70;11.18;;;;;;;;;;5095241;28;20036;-71
2023/12/05 02:33:46;;;;;;;30.83;11.02;;;;;;;;;;5095584;28;20070;-70
2023/12/05 02:36:31;;;;;;;35.85;14.38;;;;;;;;;;5078516;28;20363;-70
2023/12/05 02:39:16;;;;;;;36.22;14.20;;;;;;;;;;5095410;28;20044;-68
2023/12/05 02:41:45;;;;;;;38.15;14.20;;;;;;;;;;5095502;28;20055;-70
2023/12/05 02:44:16;;;;;;;35.67;13.38;;;;;;;;;;5095389;28;20062;-68
2023/12/05 02:46:44;;;;;;;41.90;14.77;;;;;;;;;;5095217;28;20055;-68
2023/12/05 02:49:11;;;;;;;35.00;13.35;;;;;;;;;;5094926;28;20059;-68
2023/12/05 02:51:38;;;;;;;38.10;14.02;;;;;;;;;;5095060;28;20083;-68
2023/12/05 02:54:06;;;;;;;36.20;13.85;;;;;;;;;;5128517;27;20046;-68
2023/12/05 02:56:33;;;;;;;39.30;13.90;;;;;;;;;;5094340;28;20051;-69
2023/12/05 02:58:59;;;;;;;36.63;14.50;;;;;;;;;;5094012;28;20403;-70
2023/12/05 03:01:25;;;;;;;33.47;10.45;;;;;;;;;;5094835;28;20297;-67
2023/12/05 03:03:51;;;;;;;40.92;15.02;;;;;;;;;;5128100;27;20575;-69
2023/12/05 03:06:17;;;;;;;40.53;15.15;;;;;;;;;;5094685;28;20059;-69
2023/12/05 03:08:43;;;;;;;39.67;15.25;;;;;;;;;;5093794;28;20396;-68
2023/12/05 03:11:09;;;;;;;33.30;11.93;;;;;;;;;;5094911;28;20050;-68
2023/12/05 03:13:38;;;;;;;35.00;13.88;;;;;;;;;;5093880;28;20144;-68
2023/12/05 03:16:05;;;;;;;34.80;12.40;;;;;;;;;;5095368;28;20400;-69
2023/12/05 03:18:31;;;;;;;35.47;12.93;;;;;;;;;;5094740;28;20075;-70
2023/12/05 03:20:57;;;;;;;34.47;13.85;;;;;;;;;;5094215;28;20127;-70
2023/12/05 03:23:23;;;;;;;38.42;14.93;;;;;;;;;;5095385;28;20128;-69
2023/12/05 03:25:49;;;;;;;36.13;13.20;;;;;;;;;;5093510;28;20048;-68
2023/12/05 03:28:15;;;;;;;33.95;14.15;;;;;;;;;;5094579;28;20048;-69
2023/12/05 03:30:41;;;;;;;40.13;15.65;;;;;;;;;;5094536;28;20233;-70
2023/12/05 03:33:07;;;;;;;42.58;16.67;;;;;;;;;;5094577;28;20081;-70
2023/12/05 03:35:33;;;;;;;42.20;15.40;;;;;;;;;;5093618;28;20094;-69
2023/12/05 03:37:59;;;;;;;41.30;15.13;;;;;;;;;;5094933;28;20048;-70
2023/12/05 03:40:25;;;;;;;42.28;15.50;;;;;;;;;;5094271;28;20044;-70
2023/12/05 03:42:51;;;;;;;36.65;14.57;;;;;;;;;;5094526;28;20048;-69
2023/12/05 03:45:17;;;;;;;33.65;12.70;;;;;;;;;;5094224;28;20050;-69
2023/12/05 03:47:44;;;;;;;24.60;8.93;;;;;;;;;;5060147;28;20562;-68
2023/12/05 03:50:10;;;;;;;40.42;14.82;;;;;;;;;;5094561;28;20056;-69
2023/12/05 03:52:36;;;;;;;40.15;14.85;;;;;;;;;;5076371;28;20059;-71
2023/12/05 03:55:02;;;;;;;32.35;12.65;;;;;;;;;;5093137;28;20127;-71
2023/12/05 03:57:28;;;;;;;35.35;13.60;;;;;;;;;;5094268;28;20166;-71
2023/12/05 03:59:54;;;;;;;33.78;13.18;;;;;;;;;;5094675;28;20139;-70
2023/12/05 04:02:20;;;;;;;40.40;15.60;;;;;;;;;;5092868;28;20044;-70
2023/12/05 04:04:46;;;;;;;31.13;11.95;;;;;;;;;;5093530;28;20081;-70
2023/12/05 04:07:13;;;;;;;39.40;12.90;;;;;;;;;;5093927;28;20044;-70
2023/12/05 04:09:39;;;;;;;38.88;13.98;;;;;;;;;;5093815;28;20044;-70
2023/12/05 04:12:05;;;;;;;40.58;15.73;;;;;;;;;;5093887;28;20056;-71
2023/12/05 04:14:31;;;;;;;39.28;15.98;;;;;;;;;;5092846;28;20070;-71
2023/12/05 04:16:57;;;;;;;36.17;12.65;;;;;;;;;;5093321;28;20472;-68
2023/12/05 04:19:23;;;;;;;42.40;15.90;;;;;;;;;;5093658;28;20459;-72
2023/12/05 04:21:49;;;;;;;26.00;10.18;;;;;;;;;;5092334;28;20051;-69
2023/12/05 04:24:15;;;;;;;37.75;14.15;;;;;;;;;;5093622;28;20376;-69
2023/12/05 04:26:41;;;;;;;36.15;13.95;;;;;;;;;;5093593;28;20055;-70
2023/12/05 04:29:08;;;;;;;39.33;14.85;;;;;;;;;;5093580;28;20051;-69
2023/12/05 04:31:34;;;;;;;38.97;13.20;;;;;;;;;;5093580;28;20055;-69
2023/12/05 04:34:00;;;;;;;25.55;9.15;;;;;;;;;;5093504;28;20047;-68
2023/12/05 04:36:26;;;;;;;32.22;12.20;;;;;;;;;;5093454;28;20052;-69
2023/12/05 04:38:52;;;;;;;33.80;11.32;;;;;;;;;;5126644;28;20051;-69
2023/12/05 04:41:18;;;;;;;45.65;16.80;;;;;;;;;;5075380;28;20488;-69
2023/12/05 04:43:45;;;;;;;28.58;10.25;;;;;;;;;;5093317;28;20040;-68
2023/12/05 04:46:11;;;;;;;41.22;16.45;;;;;;;;;;5093444;28;20044;-71
2023/12/05 04:48:37;;;;;;;43.42;16.85;;;;;;;;;;5093180;28;20099;-70
2023/12/05 04:51:04;;;;;;;40.53;14.20;;;;;;;;;;5093956;28;20040;-68
2023/12/05 04:53:30;;;;;;;35.60;12.60;;;;;;;;;;5093070;28;20507;-68
2023/12/05 04:55:56;;;;;;;42.38;15.27;;;;;;;;;;5093818;28;20047;-69
2023/12/05 04:58:22;;;;;;;44.40;14.07;;;;;;;;;;5094145;28;20048;-68
2023/12/05 05:00:48;;;;;;;31.67;12.48;;;;;;;;;;5093565;28;20134;-69
2023/12/05 05:03:16;;;;;;;47.38;15.48;;;;;;;;;;5092104;28;20047;-70
2023/12/05 05:05:42;;;;;;;44.35;16.58;;;;;;;;;;5093159;28;20150;-70
2023/12/05 05:08:08;;;;;;;41.50;15.02;;;;;;;;;;5092945;28;20048;-68
2023/12/05 05:10:34;;;;;;;42.45;15.05;;;;;;;;;;5093180;28;20036;-67
2023/12/05 05:13:00;;;;;;;41.67;16.00;;;;;;;;;;5093255;28;20040;-69
2023/12/05 05:15:26;;;;;;;43.80;17.00;;;;;;;;;;5093075;28;20052;-68
2023/12/05 05:17:52;;;;;;;44.53;16.67;;;;;;;;;;5093819;28;20075;-68
2023/12/05 05:20:20;;;;;;;47.90;15.98;;;;;;;;;;5079174;28;20040;-71
2023/12/05 05:22:46;;;;;;;;;;;;;;;;;;5096244;28;20044;-69
2023/12/05 05:25:12;;;;;;;42.75;14.52;;;;;;;;;;5096935;28;20244;-68
2023/12/05 05:27:38;;;;;;;47.45;17.83;;;;;;;;;;5095941;28;20048;-69
2023/12/05 05:30:04;;;;;;;46.38;17.52;;;;;;;;;;5097411;28;20055;-69
2023/12/05 05:32:30;;;;;;;43.05;15.55;;;;;;;;;;5096695;28;20051;-69
2023/12/05 05:34:56;;;;;;;50.10;18.15;;;;;;;;;;5097967;28;20051;-69
2023/12/05 05:37:23;;;;;;;46.38;17.65;;;;;;;;;;5095986;28;20047;-69
2023/12/05 05:39:49;;;;;;;50.80;19.48;;;;;;;;;;5096311;28;20075;-69
2023/12/05 05:42:15;;;;;;;50.08;17.48;;;;;;;;;;5097028;28;20392;-69
2023/12/05 05:44:41;;;;;;;43.85;16.10;;;;;;;;;;5097494;28;20434;-67
2023/12/05 05:47:07;;;;;;;53.28;18.35;;;;;;;;;;5095704;28;20044;-68
2023/12/05 05:49:33;;;;;;;48.83;16.67;;;;;;;;;;5095457;28;20407;-70
2023/12/05 05:51:59;;;;;;;50.42;17.23;;;;;;;;;;5095501;28;20052;-72
2023/12/05 05:54:26;;;;;;;52.70;18.08;;;;;;;;;;5078681;28;20055;-69
2023/12/05 05:56:52;;;;;;;53.17;19.85;;;;;;;;;;5096055;28;20496;-70
2023/12/05 05:59:18;;;;;;;49.55;18.42;;;;;;;;;;5095161;28;20084;-69
2023/12/05 06:01:46;;;;;;;43.75;15.63;;;;;;;;;;5078419;28;20563;-68
2023/12/05 06:04:13;;;;;;;52.05;19.17;;;;;;;;;;5096502;28;20499;-69
2023/12/05 06:06:39;;;;;;;44.50;16.42;;;;;;;;;;5096374;28;20071;-68
2023/12/05 06:09:05;;;;;;;51.60;19.13;;;;;;;;;;5096158;28;20079;-68
2023/12/05 06:11:31;;;;;;;56.58;18.85;;;;;;;;;;5096118;28;20509;-70
2023/12/05 06:13:57;;;;;;;55.72;20.40;;;;;;;;;;5096621;28;20040;-69
2023/12/05 06:16:23;;;;;;;58.63;21.45;;;;;;;;;;5096114;28;20043;-69
2023/12/05 06:18:50;;;;;;;52.53;19.00;;;;;;;;;;5096128;28;20492;-71
2023/12/05 06:21:16;;;;;;;53.83;19.02;;;;;;;;;;5094518;28;20054;-70
2023/12/05 06:23:43;;;;;;;62.97;22.95;;;;;;;;;;5095764;28;20047;-68
2023/12/05 06:26:09;;;;;;;60.10;20.50;;;;;;;;;;5095856;28;20127;-68
2023/12/05 06:28:35;;;;;;;53.97;19.55;;;;;;;;;;5094105;28;20044;-68
2023/12/05 06:31:01;;;;;;;45.53;16.55;;;;;;;;;;5095281;28;20081;-69
2023/12/05 06:33:27;;;;;;;57.22;21.52;;;;;;;;;;5094671;28;20044;-69
2023/12/05 06:35:53;;;;;;;62.33;20.40;;;;;;;;;;5096327;28;20048;-69
2023/12/05 06:38:19;;;;;;;54.63;19.70;;;;;;;;;;5094514;28;20083;-68
2023/12/05 06:40:45;;;;;;;58.13;20.60;;;;;;;;;;5111433;28;20051;-69
2023/12/05 06:43:11;;;;;;;59.25;20.02;;;;;;;;;;5095600;28;20051;-69
2023/12/05 06:45:37;;;;;;;56.30;19.83;;;;;;;;;;5093966;28;20040;-67
2023/12/05 06:48:04;;;;;;;63.63;21.30;;;;;;;;;;5094267;28;20069;-68
2023/12/05 06:50:30;;;;;;;61.13;21.00;;;;;;;;;;5095158;28;20059;-70
2023/12/05 06:52:57;;;;;;;56.25;21.48;;;;;;;;;;5093747;28;20044;-69
2023/12/05 06:55:27;;;;;;;64.65;22.75;;;;;;;;;;5077380;28;20127;-69
2023/12/05 06:57:53;;;;;;;63.30;21.65;;;;;;;;;;5094151;28;20384;-70
2023/12/05 07:00:19;;;;;;;56.70;19.15;;;;;;;;;;5095020;28;20150;-71
2023/12/05 07:02:45;;;;;;;54.90;18.93;;;;;;;;;;5095200;28;20419;-68
2023/12/05 07:05:11;;;;;;;61.42;20.20;;;;;;;;;;5094850;28;20050;-69
2023/12/05 07:07:38;;;;;;;61.88;21.75;;;;;;;;;;5094530;28;20086;-69
2023/12/05 07:10:05;;;;;;;60.15;19.58;;;;;;;;;;5095277;28;20048;-69
2023/12/05 07:12:32;;;;;;;62.63;21.23;;;;;;;;;;5094695;28;20047;-68
2023/12/05 07:14:58;;;;;;;65.65;21.13;;;;;;;;;;5095126;28;20126;-69
2023/12/05 07:17:24;;;;;;;64.20;20.98;;;;;;;;;;5094645;28;20040;-69
2023/12/05 07:19:50;;;;;;;64.28;21.45;;;;;;;;;;5093206;28;20051;-68
2023/12/05 07:22:16;;;;;;;61.80;21.48;;;;;;;;;;5094403;28;20040;-69
2023/12/05 07:24:43;;;;;;;64.00;21.55;;;;;;;;;;5076463;28;20052;-68
2023/12/05 07:27:09;;;;;;;66.23;20.80;;;;;;;;;;5093179;28;20043;-68
2023/12/05 07:29:35;;;;;;;62.53;19.85;;;;;;;;;;5094449;28;20066;-71
2023/12/05 07:32:01;;;;;;;66.25;21.48;;;;;;;;;;5093052;28;20058;-70
2023/12/05 07:34:27;;;;;;;64.63;20.67;;;;;;;;;;5093110;28;20093;-71
2023/12/05 07:36:53;;;;;;;52.08;17.52;;;;;;;;;;5094602;28;20447;-69
2023/12/05 07:39:19;;;;;;;72.15;25.92;;;;;;;;;;5093745;28;20089;-70
2023/12/05 07:41:46;;;;;;;64.45;21.88;;;;;;;;;;5092373;28;20131;-70
2023/12/05 07:44:12;;;;;;;59.65;20.95;;;;;;;;;;5092965;28;20044;-69
2023/12/05 07:46:41;;;;;;;60.75;19.30;;;;;;;;;;5094487;28;20431;-68
2023/12/05 07:49:07;;;;;;;53.78;18.98;;;;;;;;;;5093937;28;20058;-69
2023/12/05 07:51:33;;;;;;;64.30;22.70;;;;;;;;;;5093850;28;20391;-69
2023/12/05 07:53:59;;;;;;;66.47;23.15;;;;;;;;;;5093067;28;20056;-69
2023/12/05 07:56:25;;;;;;;62.95;20.52;;;;;;;;;;5093989;28;20044;-70
2023/12/05 07:58:51;;;;;;;59.22;20.40;;;;;;;;;;5092485;28;20586;-69
2023/12/05 08:01:17;;;;;;;61.38;20.42;;;;;;;;;;5093626;28;20376;-69
2023/12/05 08:03:43;;;;;;;61.15;20.33;;;;;;;;;;5093676;28;20040;-69
2023/12/05 08:06:10;;;;;;;61.75;21.05;;;;;;;;;;5093345;28;20476;-69
2023/12/05 08:08:36;;;;;;;61.08;19.95;;;;;;;;;;5110436;28;20052;-68
2023/12/05 08:11:02;;;;;;;69.65;27.52;;;;;;;;;;5093537;28;20156;-69
2023/12/05 08:13:28;;;;;;;53.67;19.20;;;;;;;;;;5093413;28;20044;-69
2023/12/05 08:15:55;;;;;;;54.75;19.13;;;;;;;;;;5093795;28;20044;-69
2023/12/05 08:18:21;;;;;;;62.13;20.80;;;;;;;;;;5093077;28;20047;-69
2023/12/05 08:20:47;;;;;;;57.13;19.10;;;;;;;;;;5093535;28;20351;-67
2023/12/05 08:23:13;;;;;;;55.42;19.38;;;;;;;;;;5093413;28;20036;-69
2023/12/05 08:25:40;;;;;;;54.55;18.15;;;;;;;;;;5093476;28;20090;-69
2023/12/05 08:28:06;;;;;;;59.25;19.65;;;;;;;;;;5092274;28;20116;-69
2023/12/05 08:30:32;;;;;;;62.75;21.30;;;;;;;;;;5093386;28;20071;-68
2023/12/05 08:32:58;;;;;;;56.13;19.25;;;;;;;;;;5093797;28;20040;-68
2023/12/05 08:35:25;;;;;;;59.05;20.58;;;;;;;;;;5092724;28;20040;-69
2023/12/05 08:37:51;;;;;;;57.47;19.83;;;;;;;;;;5093303;28;20404;-68
2023/12/05 08:40:17;;;;;;;55.65;19.63;;;;;;;;;;5093220;28;20044;-69
2023/12/05 08:42:44;;;;;;;64.57;25.25;;;;;;;;;;5093271;28;20388;-69
2023/12/05 08:45:11;;;;;;;56.33;19.73;;;;;;;;;;5093401;28;20119;-69
2023/12/05 08:47:37;;;;;;;47.53;15.98;;;;;;;;;;5093257;28;20127;-70
2023/12/05 08:50:04;;;;;;;59.28;22.75;;;;;;;;;;5093533;28;20451;-68
2023/12/05 08:52:30;;;;;;;56.55;20.50;;;;;;;;;;5096312;28;20044;-68
2023/12/05 08:54:56;;;;;;;52.17;18.17;;;;;;;;;;5097322;28;20438;-69
2023/12/05 08:57:22;;;;;;;53.67;20.02;;;;;;;;;;5096839;28;20414;-69
2023/12/05 08:59:48;;;;;;;49.40;15.85;;;;;;;;;;5098109;28;20044;-70
2023/12/05 09:02:15;;;;;;;58.10;20.08;;;;;;;;;;5096628;28;20040;-69
2023/12/05 09:04:41;;;;;;;54.53;18.60;;;;;;;;;;5097172;28;20567;-68
2023/12/05 09:07:07;;;;;;;53.63;19.40;;;;;;;;;;5097086;28;20058;-67
2023/12/05 09:09:33;;;;;;;51.42;18.58;;;;;;;;;;5097089;28;20133;-69
2023/12/05 09:11:59;;;;;;;48.80;17.15;;;;;;;;;;5097509;28;20055;-71
2023/12/05 09:14:26;;;;;;;60.38;18.80;;;;;;;;;;5097282;28;20101;-70
2023/12/05 09:16:52;;;;;;;58.65;20.25;;;;;;;;;;5097489;28;20425;-70
2023/12/05 09:19:18;;;;;;;62.40;24.95;;;;;;;;;;5079098;28;20040;-69
2023/12/05 09:21:44;;;;;;;53.92;20.85;;;;;;;;;;5096758;28;20044;-69
2023/12/05 09:24:10;;;;;;;51.45;18.02;;;;;;;;;;5096338;28;20586;-69
2023/12/05 09:26:37;;;;;;;58.25;19.75;;;;;;;;;;5096051;28;20050;-69
2023/12/05 09:29:03;;;;;;;51.05;18.13;;;;;;;;;;5096978;28;20131;-67
2023/12/05 09:31:30;;;;;;;52.13;18.58;;;;;;;;;;5095519;28;20050;-69
2023/12/05 09:33:56;;;;;;;53.90;19.08;;;;;;;;;;5095444;28;20044;-67
2023/12/05 09:36:23;;;;;;;56.72;18.15;;;;;;;;;;5078628;28;20048;-68
2023/12/05 09:38:49;;;;;;;54.20;19.10;;;;;;;;;;5095965;28;20131;-69
2023/12/05 09:41:16;;;;;;;60.58;23.90;;;;;;;;;;5096915;28;20048;-68
2023/12/05 09:43:42;;;;;;;46.63;16.35;;;;;;;;;;5097254;28;20040;-70
2023/12/05 09:46:09;;;;;;;55.28;19.33;;;;;;;;;;5096232;28;20045;-69
2023/12/05 09:48:41;;;;;;;50.88;18.90;;;;;;;;;;5061691;28;20056;-70
2023/12/05 09:51:08;;;;;;;52.75;17.58;;;;;;;;;;5096261;28;20055;-70
2023/12/05 09:53:34;;;;;;;56.60;21.10;;;;;;;;;;5096309;28;20047;-70
2023/12/05 09:56:01;;;;;;;49.43;18.83;;;;;;;;;;5096002;28;20531;-68
2023/12/05 09:58:27;;;;;;;57.63;22.17;;;;;;;;;;5096820;28;20048;-69
2023/12/05 10:00:56;;;;;;;55.55;18.40;;;;;;;;;;5096203;28;20048;-69
2023/12/05 10:03:23;;;;;;;57.58;22.05;;;;;;;;;;5094807;28;20040;-69
2023/12/05 10:05:49;;;;;;;63.42;24.95;;;;;;;;;;5096946;28;20074;-69
2023/12/05 10:08:16;;;;;;;59.58;21.25;;;;;;;;;;5096042;28;20048;-70
2023/12/05 10:10:45;;;;;;;55.92;19.05;;;;;;;;;;5096201;28;20040;-69
2023/12/05 10:13:12;;;;;;;44.42;13.98;;;;;;;;;;5095891;28;20066;-69
2023/12/05 10:15:40;;;;;;;63.20;20.88;;;;;;;;;;5078155;28;20075;-69
2023/12/05 10:18:06;;;;;;;57.88;20.08;;;;;;;;;;5095133;28;20047;-69
2023/12/05 10:20:32;;;;;;;56.40;19.52;;;;;;;;;;5095471;28;20052;-69
2023/12/05 10:22:59;;;;;;;56.50;20.55;;;;;;;;;;5096340;28;20044;-70
2023/12/05 10:25:25;;;;;;;57.08;19.52;;;;;;;;;;5095955;28;20040;-69
2023/12/05 10:28:05;;;;;;;64.07;22.50;;;;;;;;;;5095656;28;20052;-70
2023/12/05 10:30:34;;;;;;;59.90;19.60;;;;;;;;;;5095825;28;20047;-70
2023/12/05 10:33:13;;;;;;;56.92;19.27;;;;;;;;;;5095311;28;20130;-69
2023/12/05 10:35:40;;;;;;;62.83;22.17;;;;;;;;;;5095629;28;20120;-70
2023/12/05 10:38:07;;;;;;;63.58;23.77;;;;;;;;;;5129043;27;20047;-68
2023/12/05 10:40:51;;;;;;;62.25;22.40;;;;;;;;;;5095140;28;20127;-71
2023/12/05 10:43:18;;;;;;;61.20;20.95;;;;;;;;;;5095395;28;20148;-71
2023/12/05 10:45:45;;;;;;;62.05;20.80;;;;;;;;;;5094281;28;20090;-71
2023/12/05 10:48:12;;;;;;;54.15;19.63;;;;;;;;;;5093949;28;20425;-70
2023/12/05 10:50:42;;;;;;;60.33;20.48;;;;;;;;;;5094151;28;20059;-69
2023/12/05 10:53:08;;;;;;;61.92;21.30;;;;;;;;;;5095306;28;20127;-67
2023/12/05 10:55:35;;;;;;;60.53;23.08;;;;;;;;;;5096063;28;20040;-71
2023/12/05 10:58:02;;;;;;;57.05;18.70;;;;;;;;;;5094506;28;20086;-71
2023/12/05 11:00:28;;;;;;;54.23;18.53;;;;;;;;;;5094183;28;20054;-70
2023/12/05 11:02:55;;;;;;;73.00;28.80;;;;;;;;;;5094997;28;20832;-70
2023/12/05 11:05:22;;;;;;;53.75;18.95;;;;;;;;;;5093945;28;20297;-73
2023/12/05 11:07:48;;;;;;;59.45;20.95;;;;;;;;;;5094188;28;20093;-70
2023/12/05 11:10:16;;;;;;;62.95;20.17;;;;;;;;;;5094893;28;20384;-70
2023/12/05 11:12:45;;;;;;;59.65;19.67;;;;;;;;;;5093934;28;20048;-71
2023/12/05 11:15:13;;;;;;;63.25;22.48;;;;;;;;;;5092514;28;20089;-68
2023/12/05 11:17:46;;;;;;;56.83;20.13;;;;;;;;;;5076840;28;20491;-69
2023/12/05 11:20:31;;;;;;;58.78;20.52;;;;;;;;;;5095318;28;20140;-68
2023/12/05 11:23:20;;;;;;;62.15;21.27;;;;;;;;;;5095395;28;20083;-70
2023/12/05 11:25:49;;;;;;;56.70;19.45;;;;;;;;;;5049436;28;20058;-71
2023/12/05 11:28:16;;;;;;;58.22;17.33;;;;;;;;;;5094513;28;20131;-70
2023/12/05 11:30:51;;;;;;;61.80;21.50;;;;;;;;;;5094691;28;20055;-69
2023/12/05 11:33:23;;;;;;;56.83;20.10;;;;;;;;;;5094549;28;20369;-69
2023/12/05 11:36:08;;;;;;;56.55;18.33;;;;;;;;;;5094521;28;20055;-70
2023/12/05 11:38:34;;;;;;;57.05;20.00;;;;;;;;;;5094232;28;20051;-69
2023/12/05 11:41:20;;;;;;;50.47;16.23;;;;;;;;;;5095095;28;20421;-70
2023/12/05 11:44:05;;;;;;;57.97;21.08;;;;;;;;;;5094793;28;20044;-70
2023/12/05 11:46:35;;;;;;;54.15;18.83;;;;;;;;;;5092789;28;20083;-69
2023/12/05 11:49:02;;;;;;;67.13;25.45;;;;;;;;;;5094071;28;20442;-70
2023/12/05 11:51:32;;;;;;;52.05;17.48;;;;;;;;;;5093947;28;20044;-70
2023/12/05 11:54:01;;;;;;;54.70;18.60;;;;;;;;;;5094028;28;20083;-69
2023/12/05 11:56:30;;;;;;;62.28;22.33;;;;;;;;;;5093882;28;20048;-69
2023/12/05 11:59:14;;;;;;;56.33;19.20;;;;;;;;;;5093937;28;20044;-71
2023/12/05 12:01:41;;;;;;;58.10;19.50;;;;;;;;;;5092715;28;20146;-70
2023/12/05 12:04:19;;;;;;;62.40;21.42;;;;;;;;;;5094058;28;20043;-70
2023/12/05 12:06:49;;;;;;;61.60;19.83;;;;;;;;;;5094054;28;20044;-69
2023/12/05 12:09:15;;;;;;;52.47;18.02;;;;;;;;;;5093864;28;20043;-71
2023/12/05 12:11:42;;;;;;;53.72;17.75;;;;;;;;;;5093981;28;20048;-69
2023/12/05 12:14:15;;;;;;;59.67;19.02;;;;;;;;;;5094322;28;20043;-69
2023/12/05 12:16:41;;;;;;;51.65;18.38;;;;;;;;;;5093956;28;20399;-69
2023/12/05 12:19:12;;;;;;;54.03;18.00;;;;;;;;;;5093758;28;20126;-70
2023/12/05 12:21:47;;;;;;;56.60;19.20;;;;;;;;;;5092637;28;20101;-69
2023/12/05 12:24:19;;;;;;;60.72;25.65;;;;;;;;;;5093485;28;20036;-69
2023/12/05 12:26:55;;;;;;;52.30;18.17;;;;;;;;;;5092943;28;20087;-70
2023/12/05 12:29:21;;;;;;;41.30;15.48;;;;;;;;;;5093548;28;20377;-68
2023/12/05 12:31:52;;;;;;;58.60;19.53;;;;;;;;;;5093609;28;20043;-69
2023/12/05 12:34:28;;;;;;;60.58;20.15;;;;;;;;;;5094054;28;20349;-70
2023/12/05 12:36:58;;;;;;;62.30;20.55;;;;;;;;;;5093502;28;20089;-69
2023/12/05 12:39:27;;;;;;;53.20;16.60;;;;;;;;;;5093374;28;20139;-69
2023/12/05 12:41:54;;;;;;;54.17;18.13;;;;;;;;;;5093400;28;20043;-70
2023/12/05 12:44:20;;;;;;;64.68;25.40;;;;;;;;;;5093374;28;20546;-69
2023/12/05 12:46:47;;;;;;;59.97;21.45;;;;;;;;;;5093599;28;20131;-70
2023/12/05 12:49:14;;;;;;;58.20;19.83;;;;;;;;;;5093222;28;20143;-71
2023/12/05 12:51:43;;;;;;;60.08;22.13;;;;;;;;;;5091847;28;20040;-69
2023/12/05 12:54:10;;;;;;;55.40;20.35;;;;;;;;;;5093657;28;20046;-69
2023/12/05 12:56:36;;;;;;;56.97;19.23;;;;;;;;;;5093243;28;20150;-69
2023/12/05 12:59:03;;;;;;;60.20;18.92;;;;;;;;;;5093189;28;20052;-70
2023/12/05 13:01:31;;;;;;;58.25;19.65;;;;;;;;;;5093104;28;20048;-71
2023/12/05 13:03:58;;;;;;;60.50;21.15;;;;;;;;;;5093079;28;20052;-70
2023/12/05 13:06:24;;;;;;;60.40;21.35;;;;;;;;;;5093345;28;20365;-68
2023/12/05 13:08:50;;;;;;;67.13;25.23;;;;;;;;;;5092988;28;20506;-69
2023/12/05 13:11:17;;;;;;;54.45;17.08;;;;;;;;;;5093303;28;20040;-70
2023/12/05 13:13:44;;;;;;;63.17;23.17;;;;;;;;;;5075942;28;20153;-69
2023/12/05 13:16:11;;;;;;;62.45;21.70;;;;;;;;;;5093016;28;20087;-70
2023/12/05 13:18:41;;;;;;;76.38;29.08;;;;;;;;;;5091995;28;20059;-69
2023/12/05 13:21:08;;;;;;;59.92;18.90;;;;;;;;;;5093462;28;20044;-71
2023/12/05 13:23:34;;;;;;;62.78;21.70;;;;;;;;;;5092846;28;20127;-70
2023/12/05 13:26:00;;;;;;;54.40;16.50;;;;;;;;;;5092977;28;20081;-70
2023/12/05 13:28:26;;;;;;;69.53;21.02;;;;;;;;;;5092877;28;20044;-68
2023/12/05 13:30:52;;;;;;;80.35;29.95;;;;;;;;;;5091925;28;20059;-69
2023/12/05 13:33:18;;;;;;;62.42;18.73;;;;;;;;;;5074823;28;20052;-71
2023/12/05 13:35:45;;;;;;;65.18;21.20;;;;;;;;;;5092992;28;20055;-70
2023/12/05 13:38:11;;;;;;;71.18;22.33;;;;;;;;;;5093563;28;20044;-69
2023/12/05 13:40:38;;;;;;;69.80;23.37;;;;;;;;;;5096248;28;20500;-70
2023/12/05 13:43:07;;;;;;;62.70;20.47;;;;;;;;;;5096510;28;20036;-70
2023/12/05 13:45:33;;;;;;;60.85;18.85;;;;;;;;;;5096645;28;20082;-71
2023/12/05 13:47:59;;;;;;;64.63;19.02;;;;;;;;;;5129467;27;20047;-70
2023/12/05 13:50:25;;;;;;;66.95;20.55;;;;;;;;;;5095714;28;20052;-68
2023/12/05 13:52:52;;;;;;;72.68;24.02;;;;;;;;;;5096462;28;20067;-69
2023/12/05 13:55:18;;;;;;;69.03;23.35;;;;;;;;;;5095140;28;20055;-71
2023/12/05 13:57:44;;;;;;;53.15;20.10;;;;;;;;;;5095779;28;20044;-69
2023/12/05 14:00:10;;;;;;;76.10;27.02;;;;;;;;;;5095973;28;20480;-70
2023/12/05 14:02:36;;;;;;;73.10;22.83;;;;;;;;;;5095028;28;20396;-71
2023/12/05 14:05:05;;;;;;;69.20;24.20;;;;;;;;;;5096885;28;20055;-70
2023/12/05 14:07:32;;;;;;;75.13;25.38;;;;;;;;;;5094935;28;20048;-69
2023/12/05 14:09:58;;;;;;;75.07;21.83;;;;;;;;;;5095339;28;20083;-70
2023/12/05 14:12:24;;;;;;;86.22;29.80;;;;;;;;;;5095990;28;20040;-71
2023/12/05 14:14:50;;;;;;;75.50;23.60;;;;;;;;;;5094686;28;20055;-70
2023/12/05 14:17:17;;;;;;;76.47;24.15;;;;;;;;;;5095891;28;20040;-69
2023/12/05 14:19:44;;;;;;;75.38;25.30;;;;;;;;;;5095764;28;20091;-69